createdAt,value
2018-08-30T00:00:19.293Z,90.80
2018-08-30T00:02:47.811Z,90.70
2018-08-30T00:05:16.405Z,90.90
2018-08-30T00:07:44.913Z,91.10
2018-08-30T00:10:13.492Z,91.20
2018-08-30T00:12:42.034Z,91.30
2018-08-30T00:15:10.590Z,91.40
2018-08-30T00:17:39.109Z,91.40
2018-08-30T00:20:07.707Z,91.40
2018-08-30T00:22:36.221Z,91.50
2018-08-30T00:25:04.977Z,91.40
2018-08-30T00:27:33.519Z,91.60
2018-08-30T00:30:02.122Z,91.70
2018-08-30T00:32:30.651Z,91.80
2018-08-30T00:34:59.229Z,91.90
2018-08-30T00:37:27.776Z,91.90
2018-08-30T00:39:56.327Z,91.60
2018-08-30T00:42:24.853Z,91.70
2018-08-30T00:44:53.421Z,91.70
2018-08-30T00:47:22.360Z,91.80
2018-08-30T00:49:51.614Z,91.20
2018-08-30T00:52:20.470Z,91.20
2018-08-30T00:54:49.147Z,91.10
2018-08-30T00:57:18.022Z,91.20
2018-08-30T00:59:46.654Z,91.10
2018-08-30T01:02:15.155Z,91.00
2018-08-30T01:04:43.642Z,90.90
2018-08-30T01:07:12.102Z,90.80
2018-08-30T01:09:40.687Z,90.90
2018-08-30T01:12:09.218Z,90.80
2018-08-30T01:14:37.670Z,90.80
2018-08-30T01:17:06.260Z,91.10
2018-08-30T01:19:34.833Z,91.30
2018-08-30T01:22:03.340Z,91.50
2018-08-30T01:24:31.846Z,91.30
2018-08-30T01:27:00.335Z,91.60
2018-08-30T01:29:28.809Z,91.50
2018-08-30T01:31:57.339Z,91.50
2018-08-30T01:34:25.787Z,91.40
2018-08-30T01:36:54.220Z,91.40
2018-08-30T01:39:22.603Z,91.40
2018-08-30T01:41:51.011Z,91.50
2018-08-30T01:44:19.452Z,91.40
2018-08-30T01:46:47.846Z,90.80
2018-08-30T01:49:16.316Z,91.00
2018-08-30T01:51:44.711Z,90.30
2018-08-30T01:54:13.103Z,90.20
2018-08-30T01:56:41.520Z,90.00
2018-08-30T01:59:10.000Z,90.00
2018-08-30T02:01:38.478Z,90.30
2018-08-30T02:04:06.946Z,90.30
2018-08-30T02:06:35.409Z,90.30
2018-08-30T02:09:04.440Z,90.30
2018-08-30T02:11:32.912Z,89.80
2018-08-30T02:14:01.341Z,89.70
2018-08-30T02:16:30.476Z,89.50
2018-08-30T02:18:58.909Z,89.60
2018-08-30T02:21:27.346Z,89.60
2018-08-30T02:23:55.775Z,89.50
2018-08-30T02:26:24.247Z,89.50
2018-08-30T02:28:52.660Z,89.40
2018-08-30T02:31:21.091Z,90.00
2018-08-30T02:33:49.532Z,90.20
2018-08-30T02:36:17.952Z,90.20
2018-08-30T02:38:46.479Z,90.10
2018-08-30T02:41:14.900Z,90.30
2018-08-30T02:43:43.359Z,90.60
2018-08-30T02:46:11.839Z,90.80
2018-08-30T02:48:40.348Z,90.90
2018-08-30T02:51:08.772Z,90.60
2018-08-30T02:53:37.218Z,90.80
2018-08-30T02:56:05.706Z,91.00
2018-08-30T02:58:34.237Z,91.10
2018-08-30T03:01:02.622Z,91.00
2018-08-30T03:03:31.057Z,91.20
2018-08-30T03:05:59.455Z,91.40
2018-08-30T03:08:27.891Z,91.60
2018-08-30T03:10:56.295Z,91.90
2018-08-30T03:13:24.752Z,91.90
2018-08-30T03:15:53.203Z,91.90
2018-08-30T03:18:21.596Z,91.90
2018-08-30T03:20:49.990Z,91.90
2018-08-30T03:23:18.437Z,92.10
2018-08-30T03:25:46.830Z,92.40
2018-08-30T03:28:15.247Z,92.50
2018-08-30T03:30:43.686Z,93.00
2018-08-30T03:33:12.120Z,92.90
2018-08-30T03:35:40.547Z,92.90
2018-08-30T03:38:08.976Z,92.70
2018-08-30T03:40:37.375Z,92.50
2018-08-30T03:43:05.838Z,92.90
2018-08-30T03:45:34.223Z,93.10
2018-08-30T03:48:02.628Z,92.80
2018-08-30T03:50:31.008Z,92.60
2018-08-30T03:52:59.411Z,92.80
2018-08-30T03:55:27.793Z,92.90
2018-08-30T03:57:56.224Z,92.90
2018-08-30T04:00:24.652Z,92.70
2018-08-30T04:02:53.189Z,92.50
2018-08-30T04:05:21.578Z,92.40
2018-08-30T04:07:49.970Z,92.50
2018-08-30T04:10:18.340Z,92.70
2018-08-30T04:12:46.712Z,92.60
2018-08-30T04:15:15.178Z,92.70
2018-08-30T04:17:43.547Z,92.80
2018-08-30T04:20:11.955Z,92.90
2018-08-30T04:22:40.330Z,92.90
2018-08-30T04:25:08.788Z,92.80
2018-08-30T04:27:37.166Z,92.50
2018-08-30T04:30:05.983Z,92.70
2018-08-30T04:32:34.424Z,92.90
2018-08-30T04:35:02.824Z,92.80
2018-08-30T04:37:31.215Z,92.50
2018-08-30T04:39:59.653Z,92.00
2018-08-30T04:42:28.251Z,92.00
2018-08-30T04:44:56.476Z,91.70
2018-08-30T04:47:24.892Z,91.50
2018-08-30T04:49:53.295Z,91.50
2018-08-30T04:52:21.692Z,91.30
2018-08-30T04:54:50.091Z,91.10
2018-08-30T04:57:18.505Z,91.10
2018-08-30T04:59:46.924Z,91.10
2018-08-30T05:02:15.304Z,90.90
2018-08-30T05:04:43.724Z,90.80
2018-08-30T05:07:12.147Z,90.70
2018-08-30T05:09:40.621Z,90.80
2018-08-30T05:12:09.274Z,90.60
2018-08-30T05:14:37.686Z,90.30
2018-08-30T05:17:06.156Z,90.30
2018-08-30T05:19:34.684Z,90.60
2018-08-30T05:22:03.080Z,90.70
2018-08-30T05:24:31.483Z,91.00
2018-08-30T05:26:59.892Z,91.10
2018-08-30T05:29:28.280Z,91.30
2018-08-30T05:31:56.813Z,91.70
2018-08-30T05:34:25.195Z,91.70
2018-08-30T05:36:53.673Z,91.80
2018-08-30T05:39:22.029Z,91.80
2018-08-30T05:41:50.435Z,91.80
2018-08-30T05:44:18.816Z,91.80
2018-08-30T05:46:47.224Z,91.80
2018-08-30T05:49:15.695Z,92.00
2018-08-30T05:51:44.168Z,92.40
2018-08-30T05:54:12.577Z,92.80
2018-08-30T05:56:41.073Z,92.90
2018-08-30T05:59:09.503Z,92.70
2018-08-30T06:01:37.951Z,92.80
2018-08-30T06:04:06.559Z,92.50
2018-08-30T06:06:35.043Z,92.30
2018-08-30T06:09:04.205Z,92.30
2018-08-30T06:11:32.716Z,92.00
2018-08-30T06:14:01.212Z,92.30
2018-08-30T06:16:29.647Z,93.10
2018-08-30T06:18:58.086Z,94.60
2018-08-30T06:21:26.532Z,95.90
2018-08-30T06:23:55.035Z,96.10
2018-08-30T06:26:23.493Z,96.70
2018-08-30T06:28:52.028Z,96.70
2018-08-30T06:31:20.481Z,97.10
2018-08-30T06:33:48.921Z,97.30
2018-08-30T06:36:17.498Z,97.50
2018-08-30T06:38:46.039Z,98.10
2018-08-30T06:41:14.418Z,98.00
2018-08-30T06:43:42.863Z,97.60
2018-08-30T06:46:11.308Z,97.80
2018-08-30T06:48:39.812Z,97.50
2018-08-30T06:51:08.229Z,97.60
2018-08-30T06:53:36.685Z,98.00
2018-08-30T06:56:05.134Z,97.90
2018-08-30T06:58:33.708Z,98.20
2018-08-30T07:01:02.089Z,97.30
2018-08-30T07:03:30.574Z,97.40
2018-08-30T07:05:58.995Z,97.90
2018-08-30T07:08:27.463Z,98.20
2018-08-30T07:10:55.899Z,97.70
2018-08-30T07:13:24.351Z,97.70
2018-08-30T07:15:52.789Z,97.40
2018-08-30T07:18:21.332Z,97.70
2018-08-30T07:20:49.751Z,97.80
2018-08-30T07:23:18.223Z,96.80
2018-08-30T07:25:46.640Z,97.10
2018-08-30T07:28:15.191Z,97.50
2018-08-30T07:30:43.619Z,97.20
2018-08-30T07:33:12.068Z,96.50
2018-08-30T07:35:40.491Z,96.70
2018-08-30T07:38:08.898Z,96.50
2018-08-30T07:40:37.315Z,95.90
2018-08-30T07:43:05.766Z,95.20
2018-08-30T07:45:34.187Z,95.50
2018-08-30T07:48:02.632Z,95.00
2018-08-30T07:50:31.055Z,95.20
2018-08-30T07:52:59.489Z,94.50
2018-08-30T07:55:28.151Z,94.20
2018-08-30T07:57:57.020Z,94.40
2018-08-30T08:00:25.936Z,94.40
2018-08-30T08:02:54.753Z,94.10
2018-08-30T08:05:23.421Z,94.50
2018-08-30T08:07:51.823Z,94.70
2018-08-30T08:10:20.248Z,94.50
2018-08-30T08:12:48.663Z,93.50
2018-08-30T08:15:17.231Z,93.10
2018-08-30T08:17:45.859Z,93.10
2018-08-30T08:20:14.275Z,93.10
2018-08-30T08:22:42.676Z,92.70
2018-08-30T08:25:11.132Z,92.70
2018-08-30T08:27:39.526Z,92.40
2018-08-30T08:30:08.204Z,92.50
2018-08-30T08:32:36.595Z,92.00
2018-08-30T08:35:05.408Z,91.70
2018-08-30T08:37:33.830Z,91.90
2018-08-30T08:40:02.287Z,91.80
2018-08-30T08:42:30.729Z,90.60
2018-08-30T08:44:59.220Z,90.00
2018-08-30T08:47:27.712Z,87.00
2018-08-30T08:49:56.200Z,87.70
2018-08-30T08:52:24.684Z,86.30
2018-08-30T08:54:53.148Z,86.50
2018-08-30T08:57:21.621Z,86.80
2018-08-30T08:59:50.068Z,87.40
2018-08-30T09:02:18.541Z,86.90
2018-08-30T09:04:47.021Z,87.20
2018-08-30T09:07:15.525Z,88.10
2018-08-30T09:09:44.025Z,86.50
2018-08-30T09:12:12.471Z,84.30
2018-08-30T09:14:40.984Z,84.20
2018-08-30T09:17:09.492Z,83.70
2018-08-30T09:19:37.992Z,81.70
2018-08-30T09:22:06.519Z,81.60
2018-08-30T09:24:35.013Z,82.20
2018-08-30T09:27:03.583Z,82.20
2018-08-30T09:29:32.015Z,82.20
2018-08-30T09:32:00.780Z,82.10
2018-08-30T09:34:29.268Z,82.20
2018-08-30T09:36:57.813Z,81.30
2018-08-30T09:39:26.267Z,80.50
2018-08-30T09:41:54.731Z,79.30
2018-08-30T09:44:23.175Z,79.70
2018-08-30T09:46:51.748Z,79.40
2018-08-30T09:49:20.213Z,79.00
2018-08-30T09:51:48.700Z,80.00
2018-08-30T09:54:17.239Z,80.20
2018-08-30T09:56:45.736Z,77.50
2018-08-30T09:59:14.257Z,75.90
2018-08-30T10:01:50.059Z,75.50
2018-08-30T10:04:19.547Z,74.00
2018-08-30T10:06:48.050Z,72.00
2018-08-30T10:09:16.565Z,72.00
2018-08-30T10:11:45.109Z,72.10
2018-08-30T10:14:13.593Z,71.70
2018-08-30T10:16:42.728Z,71.40
2018-08-30T10:19:11.218Z,71.60
2018-08-30T10:21:40.111Z,72.80
2018-08-30T10:24:08.588Z,71.90
2018-08-30T10:26:37.084Z,72.80
2018-08-30T10:29:05.928Z,71.80
2018-08-30T10:31:34.532Z,71.70
2018-08-30T10:34:03.105Z,71.30
2018-08-30T10:36:31.560Z,71.10
2018-08-30T10:39:00.026Z,71.20
2018-08-30T10:41:28.468Z,70.30
2018-08-30T10:43:56.906Z,69.30
2018-08-30T10:46:25.395Z,69.20
2018-08-30T10:48:53.848Z,69.70
2018-08-30T10:51:22.328Z,69.40
2018-08-30T10:53:50.784Z,69.10
2018-08-30T10:56:19.382Z,67.90
2018-08-30T10:58:47.837Z,68.10
2018-08-30T11:01:16.318Z,69.10
2018-08-30T11:03:45.647Z,69.80
2018-08-30T11:06:14.193Z,69.50
2018-08-30T11:08:42.656Z,68.70
2018-08-30T11:11:11.114Z,68.90
2018-08-30T11:13:39.585Z,69.10
2018-08-30T11:16:07.997Z,69.00
2018-08-30T11:18:36.574Z,69.40
2018-08-30T11:21:05.022Z,69.60
2018-08-30T11:23:33.481Z,69.80
2018-08-30T11:26:01.956Z,69.60
2018-08-30T11:28:30.442Z,69.80
2018-08-30T11:30:58.923Z,69.40
2018-08-30T11:33:27.478Z,68.40
2018-08-30T11:35:55.964Z,68.90
2018-08-30T11:38:24.511Z,67.30
2018-08-30T11:40:52.956Z,67.30
2018-08-30T11:43:21.456Z,67.10
2018-08-30T11:45:49.903Z,67.50
2018-08-30T11:48:18.382Z,68.00
2018-08-30T11:50:46.947Z,67.80
2018-08-30T11:53:15.459Z,67.00
2018-08-30T11:55:43.954Z,66.70
2018-08-30T11:58:12.426Z,67.20
2018-08-30T12:00:40.967Z,67.30
2018-08-30T12:03:09.490Z,66.50
2018-08-30T12:05:38.037Z,66.50
2018-08-30T12:08:06.690Z,65.60
2018-08-30T12:10:36.542Z,65.60
2018-08-30T12:13:05.043Z,64.00
2018-08-30T12:15:33.510Z,63.20
2018-08-30T12:18:02.266Z,63.20
2018-08-30T12:20:30.819Z,62.60
2018-08-30T12:22:59.245Z,62.10
2018-08-30T12:25:27.719Z,61.90
2018-08-30T12:27:56.199Z,61.20
2018-08-30T12:30:24.702Z,59.30
2018-08-30T12:32:53.301Z,59.90
2018-08-30T12:35:21.855Z,58.80
2018-08-30T12:37:50.373Z,59.30
2018-08-30T12:40:18.875Z,57.90
2018-08-30T12:42:47.324Z,58.20
2018-08-30T12:45:15.727Z,58.10
2018-08-30T12:47:44.153Z,57.50
2018-08-30T12:50:12.720Z,56.70
2018-08-30T12:52:41.053Z,56.80
2018-08-30T12:55:09.656Z,57.20
2018-08-30T12:57:38.063Z,57.80
2018-08-30T13:00:07.086Z,58.70
2018-08-30T13:02:35.410Z,58.50
2018-08-30T13:05:04.186Z,57.80
2018-08-30T13:07:32.663Z,57.40
2018-08-30T13:10:01.350Z,56.90
2018-08-30T13:12:29.830Z,56.60
2018-08-30T13:14:58.450Z,57.60
2018-08-30T13:17:26.945Z,57.80
2018-08-30T13:19:55.420Z,58.30
2018-08-30T13:22:24.067Z,58.50
2018-08-30T13:24:52.519Z,59.70
2018-08-30T13:27:20.878Z,58.70
2018-08-30T13:29:49.514Z,58.10
2018-08-30T13:32:17.939Z,58.40
2018-08-30T13:34:46.530Z,56.80
2018-08-30T13:37:14.932Z,56.60
2018-08-30T13:39:43.393Z,57.00
2018-08-30T13:42:11.960Z,57.10
2018-08-30T13:44:40.734Z,57.10
2018-08-30T13:47:09.160Z,57.10
2018-08-30T13:49:37.309Z,57.30
2018-08-30T13:52:06.070Z,57.20
2018-08-30T13:54:34.477Z,56.60
2018-08-30T13:57:03.122Z,56.50
2018-08-30T13:59:31.445Z,56.20
2018-08-30T14:01:59.860Z,56.70
2018-08-30T14:04:28.377Z,55.80
2018-08-30T14:06:56.949Z,55.90
2018-08-30T14:09:25.386Z,56.20
2018-08-30T14:11:54.109Z,55.70
2018-08-30T14:14:22.424Z,55.70
2018-08-30T14:16:50.677Z,56.40
2018-08-30T14:19:19.170Z,57.00
2018-08-30T14:21:47.628Z,56.50
2018-08-30T14:24:16.012Z,56.30
2018-08-30T14:26:44.642Z,55.90
2018-08-30T14:29:12.914Z,55.20
2018-08-30T14:31:41.394Z,55.30
2018-08-30T14:34:09.872Z,55.20
2018-08-30T14:36:38.422Z,55.50
2018-08-30T14:39:08.599Z,57.30
2018-08-30T14:41:36.993Z,57.20
2018-08-30T14:44:05.511Z,57.60
2018-08-30T14:46:34.024Z,58.00
2018-08-30T14:49:02.587Z,57.90
2018-08-30T14:51:31.115Z,58.00
2018-08-30T14:53:59.723Z,57.70
2018-08-30T14:56:28.137Z,57.70
2018-08-30T14:58:56.605Z,56.40
2018-08-30T15:01:25.084Z,56.90
2018-08-30T15:03:53.552Z,57.20
2018-08-30T15:06:22.032Z,57.50
2018-08-30T15:08:50.531Z,57.50
2018-08-30T15:11:19.312Z,57.50
2018-08-30T15:13:47.556Z,57.40
2018-08-30T15:16:16.085Z,56.70
2018-08-30T15:18:44.648Z,56.80
2018-08-30T15:21:13.142Z,56.60
2018-08-30T15:23:41.624Z,56.70
2018-08-30T15:26:10.098Z,56.60
2018-08-30T15:28:38.536Z,56.60
2018-08-30T15:31:07.020Z,56.20
2018-08-30T15:33:35.600Z,55.80
2018-08-30T15:36:04.055Z,55.20
2018-08-30T15:38:32.610Z,55.80
2018-08-30T15:41:01.027Z,55.40
2018-08-30T15:43:29.468Z,55.60
2018-08-30T15:45:57.962Z,55.60
2018-08-30T15:48:26.587Z,55.80
2018-08-30T15:50:54.973Z,55.20
2018-08-30T15:53:23.649Z,55.30
2018-08-30T15:55:51.993Z,61.20
2018-08-30T15:58:20.520Z,65.10
2018-08-30T16:00:49.012Z,66.70
2018-08-30T16:03:17.488Z,67.40
2018-08-30T16:05:46.240Z,67.40
2018-08-30T16:08:14.805Z,67.50
2018-08-30T16:10:43.316Z,68.60
2018-08-30T16:13:11.900Z,68.90
2018-08-30T16:15:40.385Z,69.60
2018-08-30T16:18:08.850Z,70.00
2018-08-30T16:20:37.420Z,70.30
2018-08-30T16:23:31.453Z,70.60
2018-08-30T16:25:59.928Z,70.50
2018-08-30T16:28:29.318Z,70.40
2018-08-30T16:30:57.916Z,70.40
2018-08-30T16:33:26.441Z,70.60
2018-08-30T16:35:54.932Z,71.10
2018-08-30T16:38:23.561Z,71.30
2018-08-30T16:40:52.044Z,71.60
2018-08-30T16:43:20.578Z,71.70
2018-08-30T16:45:49.389Z,72.40
2018-08-30T16:48:17.898Z,73.00
2018-08-30T16:50:46.349Z,73.30
2018-08-30T16:53:14.918Z,73.90
2018-08-30T16:55:43.413Z,74.00
2018-08-30T16:58:11.870Z,74.50
2018-08-30T17:00:40.347Z,74.50
2018-08-30T17:03:09.071Z,74.50
2018-08-30T17:05:37.537Z,75.20
2018-08-30T17:08:06.264Z,76.40
2018-08-30T17:10:34.756Z,76.50
2018-08-30T17:13:03.324Z,77.00
2018-08-30T17:15:31.772Z,77.00
2018-08-30T17:18:00.277Z,78.30
2018-08-30T17:20:38.062Z,78.00
2018-08-30T17:23:06.563Z,78.20
2018-08-30T17:25:35.040Z,78.20
2018-08-30T17:28:03.517Z,78.60
2018-08-30T17:30:31.984Z,78.20
2018-08-30T17:33:00.468Z,78.20
2018-08-30T17:35:28.892Z,77.40
2018-08-30T17:37:57.331Z,77.80
2018-08-30T17:40:25.836Z,77.90
2018-08-30T17:42:54.267Z,77.80
2018-08-30T17:45:22.905Z,78.10
2018-08-30T17:47:51.285Z,78.20
2018-08-30T17:50:19.799Z,78.30
2018-08-30T17:52:48.424Z,78.90
2018-08-30T17:55:17.017Z,79.00
2018-08-30T17:57:45.416Z,79.30
2018-08-30T18:00:14.440Z,79.50
2018-08-30T18:02:44.081Z,80.00
2018-08-30T18:05:12.930Z,79.90
2018-08-30T18:07:41.395Z,80.10
2018-08-30T18:10:10.032Z,80.20
2018-08-30T18:12:39.028Z,80.30
2018-08-30T18:15:09.235Z,80.40
2018-08-30T18:17:37.636Z,80.30
2018-08-30T18:20:06.465Z,79.70
2018-08-30T18:22:34.929Z,80.00
2018-08-30T18:25:03.388Z,80.40
2018-08-30T18:27:31.812Z,80.70
2018-08-30T18:30:00.248Z,80.80
2018-08-30T18:32:28.664Z,80.80
2018-08-30T18:34:57.275Z,80.60
2018-08-30T18:37:25.697Z,80.50
2018-08-30T18:39:54.168Z,81.00
2018-08-30T18:42:22.711Z,80.70
2018-08-30T18:44:51.217Z,81.30
2018-08-30T18:47:19.695Z,81.40
2018-08-30T18:49:48.204Z,81.40
2018-08-30T18:52:16.677Z,81.50
2018-08-30T18:54:45.146Z,81.40
2018-08-30T18:57:13.580Z,81.50
2018-08-30T18:59:42.032Z,81.50
2018-08-30T19:02:10.481Z,82.60
2018-08-30T19:04:38.932Z,82.90
2018-08-30T19:07:07.416Z,83.30
2018-08-30T19:09:35.877Z,83.90
2018-08-30T19:12:04.329Z,84.20
2018-08-30T19:14:32.814Z,84.80
2018-08-30T19:17:06.680Z,85.10
2018-08-30T19:19:36.002Z,85.30
2018-08-30T19:22:04.713Z,85.40
2018-08-30T19:24:38.697Z,85.30
2018-08-30T19:27:07.197Z,85.10
2018-08-30T19:29:41.072Z,86.30
2018-08-30T19:32:09.533Z,85.80
2018-08-30T19:34:37.996Z,85.90
2018-08-30T19:37:06.502Z,85.90
2018-08-30T19:39:34.952Z,86.10
2018-08-30T19:42:03.421Z,86.60
2018-08-30T19:44:31.877Z,87.00
2018-08-30T19:47:00.350Z,87.00
2018-08-30T19:49:28.836Z,87.10
2018-08-30T19:51:57.301Z,87.60
2018-08-30T19:54:25.748Z,87.70
2018-08-30T19:56:54.216Z,87.60
2018-08-30T19:59:22.676Z,88.10
2018-08-30T20:01:51.140Z,88.70
2018-08-30T20:04:19.588Z,88.70
2018-08-30T20:06:48.119Z,89.40
2018-08-30T20:09:16.662Z,89.90
2018-08-30T20:11:45.065Z,90.10
2018-08-30T20:14:13.510Z,90.30
2018-08-30T20:16:42.052Z,90.40
2018-08-30T20:19:10.493Z,90.60
2018-08-30T20:21:38.964Z,90.80
2018-08-30T20:24:07.458Z,91.00
2018-08-30T20:26:35.933Z,91.30
2018-08-30T20:29:04.420Z,91.40
2018-08-30T20:31:32.918Z,91.60
2018-08-30T20:34:01.405Z,91.70
2018-08-30T20:36:29.849Z,91.80
2018-08-30T20:38:58.301Z,91.90
2018-08-30T20:41:26.781Z,92.10
2018-08-30T20:43:55.241Z,92.40
2018-08-30T20:46:23.767Z,92.50
2018-08-30T20:48:52.160Z,92.60
2018-08-30T20:51:20.644Z,92.50
2018-08-30T20:53:49.070Z,92.50
2018-08-30T20:56:17.634Z,92.50
2018-08-30T20:58:46.089Z,92.60
2018-08-30T21:01:14.580Z,92.50
2018-08-30T21:03:43.055Z,92.50
2018-08-30T21:06:11.572Z,92.50
2018-08-30T21:08:39.996Z,92.50
2018-08-30T21:11:08.445Z,92.50
2018-08-30T21:13:36.925Z,92.50
2018-08-30T21:16:05.399Z,92.50
2018-08-30T21:18:33.884Z,92.50
2018-08-30T21:21:02.318Z,92.50
2018-08-30T21:23:30.713Z,92.50
2018-08-30T21:25:59.127Z,92.50
2018-08-30T21:28:27.599Z,92.30
2018-08-30T21:30:56.105Z,92.20
2018-08-30T21:33:24.702Z,92.10
2018-08-30T21:35:53.376Z,92.00
2018-08-30T21:38:21.793Z,91.80
2018-08-30T21:40:50.252Z,91.80
2018-08-30T21:43:19.068Z,91.50
2018-08-30T21:45:47.905Z,91.50
2018-08-30T21:48:16.610Z,91.40
2018-08-30T21:50:45.116Z,91.40
2018-08-30T21:53:13.537Z,91.50
2018-08-30T21:55:41.948Z,91.50
2018-08-30T21:58:10.604Z,91.40
2018-08-30T22:00:39.672Z,91.40
2018-08-30T22:03:08.613Z,91.40
2018-08-30T22:05:37.556Z,91.30
2018-08-30T22:08:06.069Z,91.30
2018-08-30T22:10:34.484Z,91.50
2018-08-30T22:13:02.934Z,91.40
2018-08-30T22:15:31.490Z,91.30
2018-08-30T22:18:00.217Z,91.20
2018-08-30T22:20:28.717Z,91.20
2018-08-30T22:22:57.142Z,91.20
2018-08-30T22:25:25.553Z,91.10
2018-08-30T22:27:53.985Z,91.10
2018-08-30T22:30:22.400Z,91.10
2018-08-30T22:32:50.833Z,91.00
2018-08-30T22:35:19.275Z,90.90
2018-08-30T22:37:47.668Z,90.90
2018-08-30T22:40:16.137Z,91.10
2018-08-30T22:42:44.517Z,91.00
2018-08-30T22:45:12.944Z,90.90
2018-08-30T22:47:41.344Z,90.90
2018-08-30T22:50:09.775Z,91.00
2018-08-30T22:52:38.165Z,91.10
2018-08-30T22:55:06.626Z,90.90
2018-08-30T22:57:35.073Z,90.80
2018-08-30T23:00:03.768Z,90.90
2018-08-30T23:02:32.159Z,91.10
2018-08-30T23:05:00.584Z,91.00
2018-08-30T23:07:28.997Z,90.90
2018-08-30T23:09:57.467Z,90.70
2018-08-30T23:12:25.870Z,90.60
2018-08-30T23:14:54.329Z,90.80
2018-08-30T23:17:22.744Z,90.70
2018-08-30T23:19:51.257Z,90.60
2018-08-30T23:22:19.688Z,90.40
2018-08-30T23:24:48.124Z,90.20
2018-08-30T23:27:16.537Z,90.20
2018-08-30T23:29:44.997Z,90.20
2018-08-30T23:32:13.388Z,89.60
2018-08-30T23:34:41.800Z,90.10
2018-08-30T23:37:10.216Z,90.10
2018-08-30T23:39:38.613Z,90.20
2018-08-30T23:42:07.057Z,90.10
2018-08-30T23:44:35.445Z,89.70
2018-08-30T23:47:03.949Z,89.60
2018-08-30T23:49:32.352Z,89.70
2018-08-30T23:52:00.773Z,89.40
2018-08-30T23:54:29.241Z,89.40
2018-08-30T23:56:57.733Z,90.00
2018-08-30T23:59:37.477Z,89.40
